sensor_id;sensor_type;location;lat;lon;timestamp;P1;durP1;ratioP1;P2;durP2;ratioP2
15486;SDS011;7845;53.698;10.078;2023-11-21T00:02:15;14.00;;;14.00;;
15486;SDS011;7845;53.698;10.078;2023-11-21T00:04:40;16.67;;;16.67;;
15486;SDS011;7845;53.698;10.078;2023-11-21T00:07:06;18.67;;;16.67;;
15486;SDS011;7845;53.698;10.078;2023-11-21T00:09:31;17.67;;;16.00;;
15486;SDS011;7845;53.698;10.078;2023-11-21T00:11:57;17.00;;;15.75;;
15486;SDS011;7845;53.698;10.078;2023-11-21T00:14:24;16.25;;;15.25;;
15486;SDS011;7845;53.698;10.078;2023-11-21T00:16:49;20.00;;;17.67;;
15486;SDS011;7845;53.698;10.078;2023-11-21T00:19:15;17.33;;;17.33;;
15486;SDS011;7845;53.698;10.078;2023-11-21T00:21:41;17.50;;;15.25;;
15486;SDS011;7845;53.698;10.078;2023-11-21T00:24:09;16.25;;;16.25;;
15486;SDS011;7845;53.698;10.078;2023-11-21T00:26:34;20.67;;;20.00;;
15486;SDS011;7845;53.698;10.078;2023-11-21T00:29:02;16.50;;;14.50;;
15486;SDS011;7845;53.698;10.078;2023-11-21T00:31:27;19.67;;;16.67;;
15486;SDS011;7845;53.698;10.078;2023-11-21T00:33:52;20.67;;;17.67;;
15486;SDS011;7845;53.698;10.078;2023-11-21T00:36:19;16.00;;;15.50;;
15486;SDS011;7845;53.698;10.078;2023-11-21T00:38:45;20.33;;;19.67;;
15486;SDS011;7845;53.698;10.078;2023-11-21T00:41:10;17.33;;;16.00;;
15486;SDS011;7845;53.698;10.078;2023-11-21T00:43:35;19.67;;;16.00;;
15486;SDS011;7845;53.698;10.078;2023-11-21T00:46:03;17.67;;;16.67;;
15486;SDS011;7845;53.698;10.078;2023-11-21T00:48:32;19.00;;;15.50;;
15486;SDS011;7845;53.698;10.078;2023-11-21T00:50:57;20.33;;;16.67;;
15486;SDS011;7845;53.698;10.078;2023-11-21T00:53:22;17.67;;;16.00;;
15486;SDS011;7845;53.698;10.078;2023-11-21T00:55:48;22.67;;;16.67;;
15486;SDS011;7845;53.698;10.078;2023-11-21T00:58:13;17.67;;;12.67;;
15486;SDS011;7845;53.698;10.078;2023-11-21T01:00:38;17.00;;;15.33;;
15486;SDS011;7845;53.698;10.078;2023-11-21T01:03:06;18.25;;;17.00;;
15486;SDS011;7845;53.698;10.078;2023-11-21T01:05:32;23.25;;;18.00;;
15486;SDS011;7845;53.698;10.078;2023-11-21T01:07:59;23.25;;;20.00;;
15486;SDS011;7845;53.698;10.078;2023-11-21T01:10:24;21.33;;;19.67;;
15486;SDS011;7845;53.698;10.078;2023-11-21T01:12:50;20.67;;;18.67;;
15486;SDS011;7845;53.698;10.078;2023-11-21T01:15:15;17.00;;;16.00;;
15486;SDS011;7845;53.698;10.078;2023-11-21T01:17:40;14.33;;;12.33;;
15486;SDS011;7845;53.698;10.078;2023-11-21T01:20:06;15.67;;;14.67;;
15486;SDS011;7845;53.698;10.078;2023-11-21T01:22:37;15.00;;;12.75;;
15486;SDS011;7845;53.698;10.078;2023-11-21T01:25:04;17.00;;;14.00;;
15486;SDS011;7845;53.698;10.078;2023-11-21T01:27:32;11.50;;;10.00;;
15486;SDS011;7845;53.698;10.078;2023-11-21T01:29:57;12.67;;;11.33;;
15486;SDS011;7845;53.698;10.078;2023-11-21T01:32:22;15.67;;;12.67;;
15486;SDS011;7845;53.698;10.078;2023-11-21T01:34:50;14.00;;;13.00;;
15486;SDS011;7845;53.698;10.078;2023-11-21T01:37:18;10.25;;;9.50;;
15486;SDS011;7845;53.698;10.078;2023-11-21T01:39:43;13.00;;;13.00;;
15486;SDS011;7845;53.698;10.078;2023-11-21T01:42:09;18.75;;;17.75;;
15486;SDS011;7845;53.698;10.078;2023-11-21T01:44:34;11.67;;;11.67;;
15486;SDS011;7845;53.698;10.078;2023-11-21T01:47:00;11.67;;;9.00;;
15486;SDS011;7845;53.698;10.078;2023-11-21T01:49:30;10.00;;;9.00;;
15486;SDS011;7845;53.698;10.078;2023-11-21T01:52:01;8.75;;;8.75;;
15486;SDS011;7845;53.698;10.078;2023-11-21T01:54:29;9.75;;;8.50;;
15486;SDS011;7845;53.698;10.078;2023-11-21T01:56:56;13.25;;;11.25;;
15486;SDS011;7845;53.698;10.078;2023-11-21T01:59:27;9.50;;;9.25;;
15486;SDS011;7845;53.698;10.078;2023-11-21T02:01:58;12.25;;;11.25;;
15486;SDS011;7845;53.698;10.078;2023-11-21T02:04:24;10.67;;;9.00;;
15486;SDS011;7845;53.698;10.078;2023-11-21T02:06:50;8.33;;;8.33;;
15486;SDS011;7845;53.698;10.078;2023-11-21T02:09:15;10.33;;;9.33;;
15486;SDS011;7845;53.698;10.078;2023-11-21T02:11:42;10.75;;;9.75;;
15486;SDS011;7845;53.698;10.078;2023-11-21T02:14:08;9.00;;;8.00;;
15486;SDS011;7845;53.698;10.078;2023-11-21T02:16:34;11.67;;;11.67;;
15486;SDS011;7845;53.698;10.078;2023-11-21T02:19:01;8.00;;;8.00;;
15486;SDS011;7845;53.698;10.078;2023-11-21T02:21:28;10.75;;;10.75;;
15486;SDS011;7845;53.698;10.078;2023-11-21T02:23:53;8.00;;;8.00;;
15486;SDS011;7845;53.698;10.078;2023-11-21T02:26:20;9.75;;;9.75;;
15486;SDS011;7845;53.698;10.078;2023-11-21T02:28:45;6.00;;;6.00;;
15486;SDS011;7845;53.698;10.078;2023-11-21T02:31:11;8.67;;;8.00;;
15486;SDS011;7845;53.698;10.078;2023-11-21T02:33:37;9.50;;;9.25;;
15486;SDS011;7845;53.698;10.078;2023-11-21T02:36:03;8.00;;;7.33;;
15486;SDS011;7845;53.698;10.078;2023-11-21T02:38:28;9.67;;;8.00;;
15486;SDS011;7845;53.698;10.078;2023-11-21T02:40:54;9.50;;;9.00;;
15486;SDS011;7845;53.698;10.078;2023-11-21T02:43:19;10.67;;;9.33;;
15486;SDS011;7845;53.698;10.078;2023-11-21T02:45:44;8.67;;;8.00;;
15486;SDS011;7845;53.698;10.078;2023-11-21T02:48:10;8.67;;;8.67;;
15486;SDS011;7845;53.698;10.078;2023-11-21T02:50:35;11.00;;;11.00;;
15486;SDS011;7845;53.698;10.078;2023-11-21T02:53:01;9.00;;;8.00;;
15486;SDS011;7845;53.698;10.078;2023-11-21T02:55:26;8.00;;;6.67;;
15486;SDS011;7845;53.698;10.078;2023-11-21T02:57:52;7.00;;;7.00;;
15486;SDS011;7845;53.698;10.078;2023-11-21T03:00:18;9.00;;;9.00;;
15486;SDS011;7845;53.698;10.078;2023-11-21T03:02:43;6.33;;;6.33;;
15486;SDS011;7845;53.698;10.078;2023-11-21T03:05:09;12.33;;;9.33;;
15486;SDS011;7845;53.698;10.078;2023-11-21T03:07:35;12.00;;;9.00;;
15486;SDS011;7845;53.698;10.078;2023-11-21T03:10:02;10.75;;;10.75;;
15486;SDS011;7845;53.698;10.078;2023-11-21T03:12:29;11.00;;;10.25;;
15486;SDS011;7845;53.698;10.078;2023-11-21T03:14:54;10.00;;;9.00;;
15486;SDS011;7845;53.698;10.078;2023-11-21T03:17:19;7.67;;;7.67;;
15486;SDS011;7845;53.698;10.078;2023-11-21T03:19:45;11.00;;;11.00;;
15486;SDS011;7845;53.698;10.078;2023-11-21T03:22:10;12.00;;;11.33;;
15486;SDS011;7845;53.698;10.078;2023-11-21T03:24:36;9.75;;;9.25;;
15486;SDS011;7845;53.698;10.078;2023-11-21T03:27:02;11.75;;;11.25;;
15486;SDS011;7845;53.698;10.078;2023-11-21T03:29:28;9.00;;;9.00;;
15486;SDS011;7845;53.698;10.078;2023-11-21T03:31:54;14.67;;;12.67;;
15486;SDS011;7845;53.698;10.078;2023-11-21T03:34:26;13.00;;;12.00;;
15486;SDS011;7845;53.698;10.078;2023-11-21T03:36:52;8.25;;;8.25;;
15486;SDS011;7845;53.698;10.078;2023-11-21T03:39:21;11.00;;;9.33;;
15486;SDS011;7845;53.698;10.078;2023-11-21T03:41:47;9.25;;;9.00;;
15486;SDS011;7845;53.698;10.078;2023-11-21T03:44:13;11.33;;;9.33;;
15486;SDS011;7845;53.698;10.078;2023-11-21T03:46:38;15.33;;;13.33;;
15486;SDS011;7845;53.698;10.078;2023-11-21T03:49:03;12.00;;;12.00;;
15486;SDS011;7845;53.698;10.078;2023-11-21T03:51:29;8.33;;;8.33;;
15486;SDS011;7845;53.698;10.078;2023-11-21T03:53:54;12.00;;;9.33;;
15486;SDS011;7845;53.698;10.078;2023-11-21T03:56:19;10.67;;;10.67;;
15486;SDS011;7845;53.698;10.078;2023-11-21T03:58:48;10.25;;;9.75;;
15486;SDS011;7845;53.698;10.078;2023-11-21T04:01:22;6.33;;;6.33;;
15486;SDS011;7845;53.698;10.078;2023-11-21T04:03:49;14.50;;;12.75;;
15486;SDS011;7845;53.698;10.078;2023-11-21T04:06:15;12.00;;;11.00;;
15486;SDS011;7845;53.698;10.078;2023-11-21T04:08:42;14.00;;;13.00;;
15486;SDS011;7845;53.698;10.078;2023-11-21T04:11:08;10.75;;;9.50;;
15486;SDS011;7845;53.698;10.078;2023-11-21T04:13:36;10.75;;;9.75;;
15486;SDS011;7845;53.698;10.078;2023-11-21T04:16:02;9.67;;;9.00;;
15486;SDS011;7845;53.698;10.078;2023-11-21T04:18:28;12.25;;;11.00;;
15486;SDS011;7845;53.698;10.078;2023-11-21T04:20:53;10.00;;;9.00;;
15486;SDS011;7845;53.698;10.078;2023-11-21T04:23:19;15.00;;;11.00;;
15486;SDS011;7845;53.698;10.078;2023-11-21T04:25:44;12.00;;;9.00;;
15486;SDS011;7845;53.698;10.078;2023-11-21T04:28:09;15.67;;;11.00;;
15486;SDS011;7845;53.698;10.078;2023-11-21T04:30:35;10.67;;;8.00;;
15486;SDS011;7845;53.698;10.078;2023-11-21T04:33:00;11.00;;;10.00;;
15486;SDS011;7845;53.698;10.078;2023-11-21T04:35:25;11.00;;;9.33;;
15486;SDS011;7845;53.698;10.078;2023-11-21T04:37:50;12.33;;;11.67;;
15486;SDS011;7845;53.698;10.078;2023-11-21T04:40:16;7.33;;;7.33;;
15486;SDS011;7845;53.698;10.078;2023-11-21T04:42:41;7.67;;;7.67;;
15486;SDS011;7845;53.698;10.078;2023-11-21T04:45:07;9.00;;;8.00;;
15486;SDS011;7845;53.698;10.078;2023-11-21T04:47:34;11.25;;;11.25;;
15486;SDS011;7845;53.698;10.078;2023-11-21T04:49:59;8.67;;;8.67;;
15486;SDS011;7845;53.698;10.078;2023-11-21T04:52:24;11.67;;;11.33;;
15486;SDS011;7845;53.698;10.078;2023-11-21T04:54:50;12.00;;;10.33;;
15486;SDS011;7845;53.698;10.078;2023-11-21T04:57:16;12.67;;;10.67;;
15486;SDS011;7845;53.698;10.078;2023-11-21T04:59:43;9.50;;;8.75;;
15486;SDS011;7845;53.698;10.078;2023-11-21T05:02:08;10.00;;;9.00;;
15486;SDS011;7845;53.698;10.078;2023-11-21T05:04:33;11.33;;;11.33;;
15486;SDS011;7845;53.698;10.078;2023-11-21T05:06:59;6.33;;;6.33;;
15486;SDS011;7845;53.698;10.078;2023-11-21T05:09:25;10.50;;;9.00;;
15486;SDS011;7845;53.698;10.078;2023-11-21T05:11:51;12.00;;;9.00;;
15486;SDS011;7845;53.698;10.078;2023-11-21T05:14:17;12.00;;;8.67;;
15486;SDS011;7845;53.698;10.078;2023-11-21T05:16:43;13.00;;;12.50;;
15486;SDS011;7845;53.698;10.078;2023-11-21T05:19:08;8.00;;;7.33;;
15486;SDS011;7845;53.698;10.078;2023-11-21T05:21:34;12.00;;;11.00;;
15486;SDS011;7845;53.698;10.078;2023-11-21T05:24:01;9.75;;;9.50;;
15486;SDS011;7845;53.698;10.078;2023-11-21T05:26:26;11.00;;;9.00;;
15486;SDS011;7845;53.698;10.078;2023-11-21T05:28:52;9.00;;;8.75;;
15486;SDS011;7845;53.698;10.078;2023-11-21T05:31:18;10.67;;;10.67;;
15486;SDS011;7845;53.698;10.078;2023-11-21T05:33:43;12.00;;;10.67;;
15486;SDS011;7845;53.698;10.078;2023-11-21T05:36:08;8.67;;;8.67;;
15486;SDS011;7845;53.698;10.078;2023-11-21T05:38:35;9.00;;;8.00;;
15486;SDS011;7845;53.698;10.078;2023-11-21T05:41:01;11.00;;;11.00;;
15486;SDS011;7845;53.698;10.078;2023-11-21T05:43:26;11.25;;;10.00;;
15486;SDS011;7845;53.698;10.078;2023-11-21T05:45:54;11.50;;;9.00;;
15486;SDS011;7845;53.698;10.078;2023-11-21T05:48:19;8.67;;;8.67;;
15486;SDS011;7845;53.698;10.078;2023-11-21T05:50:46;7.50;;;7.50;;
15486;SDS011;7845;53.698;10.078;2023-11-21T05:53:11;9.00;;;9.00;;
15486;SDS011;7845;53.698;10.078;2023-11-21T05:55:36;6.00;;;6.00;;
15486;SDS011;7845;53.698;10.078;2023-11-21T05:58:02;11.67;;;10.00;;
15486;SDS011;7845;53.698;10.078;2023-11-21T06:00:27;10.33;;;10.33;;
15486;SDS011;7845;53.698;10.078;2023-11-21T06:02:53;11.00;;;11.00;;
15486;SDS011;7845;53.698;10.078;2023-11-21T06:05:19;8.67;;;8.67;;
15486;SDS011;7845;53.698;10.078;2023-11-21T06:07:48;9.50;;;9.00;;
15486;SDS011;7845;53.698;10.078;2023-11-21T06:10:14;10.75;;;9.50;;
15486;SDS011;7845;53.698;10.078;2023-11-21T06:12:40;9.67;;;8.33;;
15486;SDS011;7845;53.698;10.078;2023-11-21T06:15:07;11.50;;;10.75;;
15486;SDS011;7845;53.698;10.078;2023-11-21T06:17:37;12.75;;;12.00;;
15486;SDS011;7845;53.698;10.078;2023-11-21T06:20:04;11.25;;;11.25;;
15486;SDS011;7845;53.698;10.078;2023-11-21T06:22:37;10.25;;;10.25;;
15486;SDS011;7845;53.698;10.078;2023-11-21T06:25:05;11.50;;;11.25;;
15486;SDS011;7845;53.698;10.078;2023-11-21T06:27:31;12.00;;;12.00;;
15486;SDS011;7845;53.698;10.078;2023-11-21T06:29:58;15.00;;;11.50;;
15486;SDS011;7845;53.698;10.078;2023-11-21T06:32:23;12.67;;;11.67;;
15486;SDS011;7845;53.698;10.078;2023-11-21T06:34:48;10.00;;;8.00;;
15486;SDS011;7845;53.698;10.078;2023-11-21T06:37:14;11.00;;;11.00;;
15486;SDS011;7845;53.698;10.078;2023-11-21T06:39:40;10.33;;;9.00;;
15486;SDS011;7845;53.698;10.078;2023-11-21T06:42:05;8.67;;;8.67;;
15486;SDS011;7845;53.698;10.078;2023-11-21T06:44:30;10.00;;;8.67;;
15486;SDS011;7845;53.698;10.078;2023-11-21T06:46:56;10.67;;;9.00;;
15486;SDS011;7845;53.698;10.078;2023-11-21T06:49:21;4.00;;;2.67;;
15486;SDS011;7845;53.698;10.078;2023-11-21T06:51:48;12.50;;;12.00;;
15486;SDS011;7845;53.698;10.078;2023-11-21T06:54:13;6.67;;;6.67;;
15486;SDS011;7845;53.698;10.078;2023-11-21T06:56:39;10.00;;;8.25;;
15486;SDS011;7845;53.698;10.078;2023-11-21T06:59:04;11.00;;;9.00;;
15486;SDS011;7845;53.698;10.078;2023-11-21T07:01:30;15.00;;;13.00;;
15486;SDS011;7845;53.698;10.078;2023-11-21T07:03:58;6.25;;;6.00;;
15486;SDS011;7845;53.698;10.078;2023-11-21T07:06:23;11.33;;;9.00;;
15486;SDS011;7845;53.698;10.078;2023-11-21T07:08:48;6.33;;;6.33;;
15486;SDS011;7845;53.698;10.078;2023-11-21T07:11:13;8.33;;;7.00;;
15486;SDS011;7845;53.698;10.078;2023-11-21T07:13:39;6.33;;;6.33;;
15486;SDS011;7845;53.698;10.078;2023-11-21T07:16:04;7.33;;;6.33;;
15486;SDS011;7845;53.698;10.078;2023-11-21T07:18:30;11.67;;;9.00;;
15486;SDS011;7845;53.698;10.078;2023-11-21T07:20:55;8.33;;;8.33;;
15486;SDS011;7845;53.698;10.078;2023-11-21T07:23:20;8.33;;;8.33;;
15486;SDS011;7845;53.698;10.078;2023-11-21T07:25:47;11.25;;;11.00;;
15486;SDS011;7845;53.698;10.078;2023-11-21T07:28:13;11.00;;;9.00;;
15486;SDS011;7845;53.698;10.078;2023-11-21T07:30:38;11.33;;;11.33;;
15486;SDS011;7845;53.698;10.078;2023-11-21T07:33:03;7.00;;;6.33;;
15486;SDS011;7845;53.698;10.078;2023-11-21T07:35:28;8.00;;;8.00;;
15486;SDS011;7845;53.698;10.078;2023-11-21T07:37:54;6.33;;;6.33;;
15486;SDS011;7845;53.698;10.078;2023-11-21T07:40:19;2.00;;;2.00;;
15486;SDS011;7845;53.698;10.078;2023-11-21T07:42:44;14.67;;;12.00;;
15486;SDS011;7845;53.698;10.078;2023-11-21T07:45:10;11.00;;;11.00;;
15486;SDS011;7845;53.698;10.078;2023-11-21T07:47:35;12.33;;;11.67;;
15486;SDS011;7845;53.698;10.078;2023-11-21T07:50:02;8.67;;;8.33;;
15486;SDS011;7845;53.698;10.078;2023-11-21T07:52:28;8.75;;;8.25;;
15486;SDS011;7845;53.698;10.078;2023-11-21T07:54:53;12.00;;;11.00;;
15486;SDS011;7845;53.698;10.078;2023-11-21T07:57:18;9.67;;;8.33;;
15486;SDS011;7845;53.698;10.078;2023-11-21T07:59:43;1.00;;;0.00;;
15486;SDS011;7845;53.698;10.078;2023-11-21T08:02:09;9.00;;;9.00;;
15486;SDS011;7845;53.698;10.078;2023-11-21T08:04:35;9.67;;;8.33;;
15486;SDS011;7845;53.698;10.078;2023-11-21T08:07:00;9.00;;;9.00;;
15486;SDS011;7845;53.698;10.078;2023-11-21T08:09:26;9.67;;;9.67;;
15486;SDS011;7845;53.698;10.078;2023-11-21T08:11:52;8.00;;;8.00;;
15486;SDS011;7845;53.698;10.078;2023-11-21T08:14:17;7.00;;;6.33;;
15486;SDS011;7845;53.698;10.078;2023-11-21T08:16:43;10.00;;;10.00;;
15486;SDS011;7845;53.698;10.078;2023-11-21T08:19:09;6.50;;;6.50;;
15486;SDS011;7845;53.698;10.078;2023-11-21T08:21:35;9.00;;;9.00;;
15486;SDS011;7845;53.698;10.078;2023-11-21T08:24:02;9.00;;;8.25;;
15486;SDS011;7845;53.698;10.078;2023-11-21T08:26:29;8.00;;;8.00;;
15486;SDS011;7845;53.698;10.078;2023-11-21T08:28:54;8.33;;;8.33;;
15486;SDS011;7845;53.698;10.078;2023-11-21T08:31:27;4.75;;;4.75;;
15486;SDS011;7845;53.698;10.078;2023-11-21T08:33:53;10.50;;;9.00;;
15486;SDS011;7845;53.698;10.078;2023-11-21T08:36:22;5.00;;;4.25;;
15486;SDS011;7845;53.698;10.078;2023-11-21T08:38:50;4.00;;;4.00;;
15486;SDS011;7845;53.698;10.078;2023-11-21T08:41:19;2.00;;;2.00;;
15486;SDS011;7845;53.698;10.078;2023-11-21T08:43:48;2.50;;;2.00;;
15486;SDS011;7845;53.698;10.078;2023-11-21T08:46:14;2.00;;;1.25;;
15486;SDS011;7845;53.698;10.078;2023-11-21T08:48:40;2.00;;;1.33;;
15486;SDS011;7845;53.698;10.078;2023-11-21T08:51:06;1.67;;;1.00;;
15486;SDS011;7845;53.698;10.078;2023-11-21T08:53:31;2.00;;;2.00;;
15486;SDS011;7845;53.698;10.078;2023-11-21T08:55:56;2.00;;;2.00;;
15486;SDS011;7845;53.698;10.078;2023-11-21T08:58:22;2.00;;;2.00;;
15486;SDS011;7845;53.698;10.078;2023-11-21T09:00:47;4.00;;;4.00;;
15486;SDS011;7845;53.698;10.078;2023-11-21T09:03:12;5.00;;;4.00;;
15486;SDS011;7845;53.698;10.078;2023-11-21T09:05:38;4.00;;;2.00;;
15486;SDS011;7845;53.698;10.078;2023-11-21T09:08:04;3.00;;;2.00;;
15486;SDS011;7845;53.698;10.078;2023-11-21T09:10:29;4.00;;;2.67;;
15486;SDS011;7845;53.698;10.078;2023-11-21T09:12:55;4.33;;;4.33;;
15486;SDS011;7845;53.698;10.078;2023-11-21T09:15:20;4.00;;;4.00;;
15486;SDS011;7845;53.698;10.078;2023-11-21T09:17:46;5.00;;;4.00;;
15486;SDS011;7845;53.698;10.078;2023-11-21T09:20:11;4.00;;;2.00;;
15486;SDS011;7845;53.698;10.078;2023-11-21T09:22:37;4.33;;;4.33;;
15486;SDS011;7845;53.698;10.078;2023-11-21T09:25:02;2.00;;;2.00;;
15486;SDS011;7845;53.698;10.078;2023-11-21T09:27:30;5.50;;;5.50;;
15486;SDS011;7845;53.698;10.078;2023-11-21T09:29:56;4.25;;;4.00;;
15486;SDS011;7845;53.698;10.078;2023-11-21T09:32:23;5.25;;;4.50;;
15486;SDS011;7845;53.698;10.078;2023-11-21T09:34:48;2.00;;;2.00;;
15486;SDS011;7845;53.698;10.078;2023-11-21T09:37:14;5.00;;;5.00;;
15486;SDS011;7845;53.698;10.078;2023-11-21T09:39:39;4.33;;;4.33;;
15486;SDS011;7845;53.698;10.078;2023-11-21T09:42:15;5.00;;;4.00;;
15486;SDS011;7845;53.698;10.078;2023-11-21T09:44:54;4.00;;;4.00;;
15486;SDS011;7845;53.698;10.078;2023-11-21T09:47:29;4.00;;;3.50;;
15486;SDS011;7845;53.698;10.078;2023-11-21T09:49:54;4.00;;;4.00;;
15486;SDS011;7845;53.698;10.078;2023-11-21T09:52:26;2.00;;;2.00;;
15486;SDS011;7845;53.698;10.078;2023-11-21T09:54:52;4.25;;;3.00;;
15486;SDS011;7845;53.698;10.078;2023-11-21T09:57:20;4.00;;;4.00;;
15486;SDS011;7845;53.698;10.078;2023-11-21T09:59:47;0.00;;;0.00;;
15486;SDS011;7845;53.698;10.078;2023-11-21T10:02:20;4.00;;;4.00;;
15486;SDS011;7845;53.698;10.078;2023-11-21T10:04:51;3.50;;;3.00;;
15486;SDS011;7845;53.698;10.078;2023-11-21T10:07:17;4.00;;;4.00;;
15486;SDS011;7845;53.698;10.078;2023-11-21T10:09:44;4.00;;;4.00;;
15486;SDS011;7845;53.698;10.078;2023-11-21T10:12:09;5.00;;;5.00;;
15486;SDS011;7845;53.698;10.078;2023-11-21T10:14:36;3.75;;;3.75;;
15486;SDS011;7845;53.698;10.078;2023-11-21T10:17:05;2.50;;;2.00;;
15486;SDS011;7845;53.698;10.078;2023-11-21T10:19:33;3.50;;;3.50;;
15486;SDS011;7845;53.698;10.078;2023-11-21T10:22:00;2.50;;;2.50;;
15486;SDS011;7845;53.698;10.078;2023-11-21T10:24:26;3.00;;;3.00;;
15486;SDS011;7845;53.698;10.078;2023-11-21T10:26:52;1.67;;;1.33;;
15486;SDS011;7845;53.698;10.078;2023-11-21T10:29:18;4.00;;;4.00;;
15486;SDS011;7845;53.698;10.078;2023-11-21T10:31:48;2.50;;;2.50;;
15486;SDS011;7845;53.698;10.078;2023-11-21T10:34:14;4.00;;;4.00;;
15486;SDS011;7845;53.698;10.078;2023-11-21T10:36:41;5.00;;;4.50;;
15486;SDS011;7845;53.698;10.078;2023-11-21T10:39:06;4.00;;;2.00;;
15486;SDS011;7845;53.698;10.078;2023-11-21T10:41:32;4.00;;;4.00;;
15486;SDS011;7845;53.698;10.078;2023-11-21T10:43:58;4.00;;;4.00;;
15486;SDS011;7845;53.698;10.078;2023-11-21T10:46:23;4.33;;;4.00;;
15486;SDS011;7845;53.698;10.078;2023-11-21T10:48:54;3.75;;;3.75;;
15486;SDS011;7845;53.698;10.078;2023-11-21T10:51:21;3.50;;;1.75;;
15486;SDS011;7845;53.698;10.078;2023-11-21T10:53:46;3.33;;;2.67;;
15486;SDS011;7845;53.698;10.078;2023-11-21T10:56:12;3.33;;;3.33;;
15486;SDS011;7845;53.698;10.078;2023-11-21T10:58:42;4.00;;;4.00;;
15486;SDS011;7845;53.698;10.078;2023-11-21T11:01:08;6.25;;;6.00;;
15486;SDS011;7845;53.698;10.078;2023-11-21T11:03:37;5.00;;;5.00;;
15486;SDS011;7845;53.698;10.078;2023-11-21T11:06:03;4.00;;;4.00;;
15486;SDS011;7845;53.698;10.078;2023-11-21T11:08:29;6.50;;;4.50;;
15486;SDS011;7845;53.698;10.078;2023-11-21T11:10:57;4.00;;;4.00;;
15486;SDS011;7845;53.698;10.078;2023-11-21T11:13:23;1.00;;;1.00;;
15486;SDS011;7845;53.698;10.078;2023-11-21T11:15:49;3.00;;;3.00;;
15486;SDS011;7845;53.698;10.078;2023-11-21T11:18:15;2.67;;;2.67;;
15486;SDS011;7845;53.698;10.078;2023-11-21T11:20:42;2.50;;;2.50;;
15486;SDS011;7845;53.698;10.078;2023-11-21T11:23:19;5.50;;;5.50;;
15486;SDS011;7845;53.698;10.078;2023-11-21T11:31:24;4.00;;;3.50;;
15486;SDS011;7845;53.698;10.078;2023-11-21T11:37:11;5.75;;;4.75;;
15486;SDS011;7845;53.698;10.078;2023-11-21T11:39:40;3.00;;;3.00;;
15486;SDS011;7845;53.698;10.078;2023-11-21T11:42:28;7.50;;;7.00;;
15486;SDS011;7845;53.698;10.078;2023-11-21T11:44:52;6.25;;;6.25;;
15486;SDS011;7845;53.698;10.078;2023-11-21T11:50:00;5.00;;;4.25;;
15486;SDS011;7845;53.698;10.078;2023-11-21T11:52:34;6.75;;;6.50;;
15486;SDS011;7845;53.698;10.078;2023-11-21T11:55:00;5.00;;;4.25;;
15486;SDS011;7845;53.698;10.078;2023-11-21T11:57:29;4.00;;;4.00;;
15486;SDS011;7845;53.698;10.078;2023-11-21T12:00:10;5.00;;;4.50;;
15486;SDS011;7845;53.698;10.078;2023-11-21T12:02:50;6.50;;;5.00;;
15486;SDS011;7845;53.698;10.078;2023-11-21T12:05:17;6.25;;;6.25;;
15486;SDS011;7845;53.698;10.078;2023-11-21T12:07:48;7.00;;;5.00;;
15486;SDS011;7845;53.698;10.078;2023-11-21T12:10:15;4.00;;;4.00;;
15486;SDS011;7845;53.698;10.078;2023-11-21T12:12:45;5.50;;;5.00;;
15486;SDS011;7845;53.698;10.078;2023-11-21T12:15:14;4.00;;;4.00;;
15486;SDS011;7845;53.698;10.078;2023-11-21T12:17:43;5.00;;;5.00;;
15486;SDS011;7845;53.698;10.078;2023-11-21T12:20:10;4.00;;;4.00;;
15486;SDS011;7845;53.698;10.078;2023-11-21T12:22:47;4.00;;;4.00;;
15486;SDS011;7845;53.698;10.078;2023-11-21T12:25:20;4.50;;;4.25;;
15486;SDS011;7845;53.698;10.078;2023-11-21T12:27:52;2.00;;;2.00;;
15486;SDS011;7845;53.698;10.078;2023-11-21T12:30:21;5.67;;;5.00;;
15486;SDS011;7845;53.698;10.078;2023-11-21T12:32:49;2.50;;;2.50;;
15486;SDS011;7845;53.698;10.078;2023-11-21T12:35:19;4.00;;;4.00;;
15486;SDS011;7845;53.698;10.078;2023-11-21T12:37:46;4.00;;;4.00;;
15486;SDS011;7845;53.698;10.078;2023-11-21T12:40:12;4.00;;;4.00;;
15486;SDS011;7845;53.698;10.078;2023-11-21T12:42:40;3.50;;;3.50;;
15486;SDS011;7845;53.698;10.078;2023-11-21T12:47:55;2.50;;;2.50;;
15486;SDS011;7845;53.698;10.078;2023-11-21T12:50:24;4.00;;;4.00;;
15486;SDS011;7845;53.698;10.078;2023-11-21T12:53:00;0.00;;;0.00;;
15486;SDS011;7845;53.698;10.078;2023-11-21T12:55:29;5.00;;;2.00;;
15486;SDS011;7845;53.698;10.078;2023-11-21T12:57:55;4.00;;;2.00;;
15486;SDS011;7845;53.698;10.078;2023-11-21T13:00:34;5.67;;;5.67;;
15486;SDS011;7845;53.698;10.078;2023-11-21T13:03:11;4.25;;;4.00;;
15486;SDS011;7845;53.698;10.078;2023-11-21T13:05:42;4.25;;;4.00;;
15486;SDS011;7845;53.698;10.078;2023-11-21T13:08:12;3.50;;;3.50;;
15486;SDS011;7845;53.698;10.078;2023-11-21T13:10:40;3.50;;;3.50;;
15486;SDS011;7845;53.698;10.078;2023-11-21T13:13:09;4.25;;;4.25;;
15486;SDS011;7845;53.698;10.078;2023-11-21T13:15:46;4.00;;;4.00;;
15486;SDS011;7845;53.698;10.078;2023-11-21T13:18:13;4.75;;;4.25;;
15486;SDS011;7845;53.698;10.078;2023-11-21T13:20:38;4.00;;;4.00;;
15486;SDS011;7845;53.698;10.078;2023-11-21T13:23:07;3.33;;;3.33;;
15486;SDS011;7845;53.698;10.078;2023-11-21T13:25:33;3.00;;;3.00;;
15486;SDS011;7845;53.698;10.078;2023-11-21T13:27:59;4.00;;;4.00;;
15486;SDS011;7845;53.698;10.078;2023-11-21T13:30:25;2.00;;;2.00;;
15486;SDS011;7845;53.698;10.078;2023-11-21T13:32:52;1.00;;;1.00;;
15486;SDS011;7845;53.698;10.078;2023-11-21T13:35:22;4.25;;;4.25;;
15486;SDS011;7845;53.698;10.078;2023-11-21T13:38:13;4.75;;;3.50;;
15486;SDS011;7845;53.698;10.078;2023-11-21T13:40:50;5.00;;;4.00;;
15486;SDS011;7845;53.698;10.078;2023-11-21T13:43:19;4.50;;;4.25;;
15486;SDS011;7845;53.698;10.078;2023-11-21T13:45:47;2.00;;;2.00;;
15486;SDS011;7845;53.698;10.078;2023-11-21T13:48:17;4.00;;;4.00;;
15486;SDS011;7845;53.698;10.078;2023-11-21T13:50:50;3.50;;;3.50;;
15486;SDS011;7845;53.698;10.078;2023-11-21T13:53:33;3.50;;;2.00;;
15486;SDS011;7845;53.698;10.078;2023-11-21T13:56:01;4.00;;;2.00;;
15486;SDS011;7845;53.698;10.078;2023-11-21T13:58:26;2.00;;;2.00;;
15486;SDS011;7845;53.698;10.078;2023-11-21T14:01:16;4.50;;;4.25;;
15486;SDS011;7845;53.698;10.078;2023-11-21T14:04:07;2.50;;;2.50;;
15486;SDS011;7845;53.698;10.078;2023-11-21T14:06:38;5.50;;;4.00;;
15486;SDS011;7845;53.698;10.078;2023-11-21T14:09:13;4.00;;;4.00;;
15486;SDS011;7845;53.698;10.078;2023-11-21T14:11:47;1.00;;;1.00;;
15486;SDS011;7845;53.698;10.078;2023-11-21T14:14:14;2.00;;;2.00;;
15486;SDS011;7845;53.698;10.078;2023-11-21T14:16:39;2.00;;;1.00;;
15486;SDS011;7845;53.698;10.078;2023-11-21T14:19:04;1.67;;;1.67;;
15486;SDS011;7845;53.698;10.078;2023-11-21T14:21:34;2.00;;;2.00;;
15486;SDS011;7845;53.698;10.078;2023-11-21T14:24:00;2.00;;;2.00;;
15486;SDS011;7845;53.698;10.078;2023-11-21T14:26:25;1.00;;;1.00;;
15486;SDS011;7845;53.698;10.078;2023-11-21T14:28:51;4.67;;;2.00;;
15486;SDS011;7845;53.698;10.078;2023-11-21T14:31:18;2.50;;;2.00;;
15486;SDS011;7845;53.698;10.078;2023-11-21T14:33:44;2.00;;;2.00;;
15486;SDS011;7845;53.698;10.078;2023-11-21T14:36:10;1.50;;;1.00;;
15486;SDS011;7845;53.698;10.078;2023-11-21T14:38:36;0.33;;;0.33;;
15486;SDS011;7845;53.698;10.078;2023-11-21T14:41:03;1.75;;;1.25;;
15486;SDS011;7845;53.698;10.078;2023-11-21T14:43:29;2.00;;;1.00;;
15486;SDS011;7845;53.698;10.078;2023-11-21T14:45:59;2.50;;;2.50;;
15486;SDS011;7845;53.698;10.078;2023-11-21T14:48:24;2.00;;;2.00;;
15486;SDS011;7845;53.698;10.078;2023-11-21T14:51:19;1.25;;;1.25;;
15486;SDS011;7845;53.698;10.078;2023-11-21T14:53:57;1.00;;;0.00;;